Time;durP1;ratioP1;P1;durP2;ratioP2;P2;SDS_P1;SDS_P2;PMS_P1;PMS_P2;Temp;Humidity;BMP_temperature;BMP_pressure;BME280_temperature;BME280_humidity;BME280_pressure;Samples;Min_cycle;Max_cycle;Signal;HPM_P1;HPM_P2
2021/05/31 00:00:49;;;;;;;4.97;3.20;;;6.20;99.90;;;;;;2073985;28;20201;-68
2021/05/31 00:01:50;;;;;;;6.70;3.33;;;6.10;99.90;;;;;;2073641;28;20198;-68
2021/05/31 00:02:51;;;;;;;5.43;3.10;;;6.10;99.90;;;;;;2073922;28;20660;-68
2021/05/31 00:03:52;;;;;;;4.20;3.17;;;6.10;99.90;;;;;;2073862;28;20185;-69
2021/05/31 00:04:52;;;;;;;4.60;3.47;;;6.10;99.90;;;;;;2073879;28;20230;-68
2021/05/31 00:05:53;;;;;;;3.83;3.20;;;6.10;99.90;;;;;;2073878;28;20207;-68
2021/05/31 00:07:10;;;;;;;5.40;3.53;;;6.10;99.90;;;;;;2074280;28;20211;-68
2021/05/31 00:08:11;;;;;;;5.95;3.53;;;6.10;99.90;;;;;;2074011;28;20252;-69
2021/05/31 00:09:12;;;;;;;3.90;3.50;;;6.00;99.90;;;;;;2074117;28;20828;-68
2021/05/31 00:10:12;;;;;;;6.35;3.50;;;6.00;99.90;;;;;;2073729;28;20225;-68
2021/05/31 00:11:14;;;;;;;4.67;3.90;;;5.90;99.90;;;;;;2073682;28;20201;-68
2021/05/31 00:12:17;;;;;;;4.70;3.90;;;5.90;99.90;;;;;;2065101;28;20212;-67
2021/05/31 00:13:19;;;;;;;4.80;3.80;;;5.90;99.90;;;;;;2057296;28;20185;-67
2021/05/31 00:14:19;;;;;;;6.28;3.63;;;5.80;99.90;;;;;;2065132;28;20188;-67
2021/05/31 00:15:21;;;;;;;5.77;3.70;;;5.80;99.90;;;;;;2073628;28;20231;-67
2021/05/31 00:16:21;;;;;;;4.80;3.30;;;5.80;99.90;;;;;;2057029;28;20187;-67
2021/05/31 00:17:25;;;;;;;4.17;3.50;;;5.70;99.90;;;;;;2049035;29;20194;-67
2021/05/31 00:18:26;;;;;;;4.70;3.92;;;5.70;99.90;;;;;;2057159;28;20251;-68
2021/05/31 00:19:27;;;;;;;5.27;3.57;;;5.70;99.90;;;;;;2065085;28;20252;-67
2021/05/31 00:20:28;;;;;;;3.92;3.53;;;5.60;99.90;;;;;;2073685;28;20422;-67
2021/05/31 00:21:29;;;;;;;4.85;3.50;;;5.60;99.90;;;;;;2073582;28;20185;-68
2021/05/31 00:22:30;;;;;;;4.90;3.42;;;5.60;99.90;;;;;;2056982;28;20284;-68
2021/05/31 00:23:30;;;;;;;6.30;3.40;;;5.60;99.90;;;;;;2056998;28;20190;-67
2021/05/31 00:24:32;;;;;;;4.03;3.63;;;5.60;99.90;;;;;;2073647;28;20175;-68
2021/05/31 00:25:33;;;;;;;5.03;3.45;;;5.60;99.90;;;;;;2064859;28;20209;-67
2021/05/31 00:26:34;;;;;;;4.27;3.00;;;5.50;99.90;;;;;;2065084;28;20607;-67
2021/05/31 00:27:36;;;;;;;5.22;3.85;;;5.50;99.90;;;;;;2073739;28;20644;-68
2021/05/31 00:28:37;;;;;;;6.63;3.80;;;5.50;99.90;;;;;;2064979;28;20192;-68
2021/05/31 00:29:38;;;;;;;4.07;3.60;;;5.40;99.90;;;;;;2064886;28;20234;-67
2021/05/31 00:30:41;;;;;;;5.35;3.47;;;5.40;99.90;;;;;;2073860;28;20199;-68
2021/05/31 00:31:43;;;;;;;4.57;3.25;;;5.30;99.90;;;;;;2056557;28;20186;-68
2021/05/31 00:32:44;;;;;;;4.30;3.33;;;5.40;99.90;;;;;;2057237;28;20166;-68
2021/05/31 00:33:44;;;;;;;3.80;3.40;;;5.30;99.90;;;;;;2073609;28;20748;-68
2021/05/31 00:34:45;;;;;;;4.43;4.03;;;5.30;99.90;;;;;;2073655;28;20259;-68
2021/05/31 00:35:46;;;;;;;6.13;3.67;;;5.30;99.90;;;;;;2064919;28;20168;-68
2021/05/31 00:36:47;;;;;;;4.30;3.63;;;5.30;99.90;;;;;;2064904;28;20184;-68
2021/05/31 00:37:48;;;;;;;4.07;3.58;;;5.30;99.90;;;;;;2064802;28;20190;-68
2021/05/31 00:38:49;;;;;;;4.97;3.37;;;5.30;99.90;;;;;;2065035;28;20585;-68
2021/05/31 00:39:50;;;;;;;4.53;3.97;;;5.30;99.90;;;;;;2073631;28;20690;-68
2021/05/31 00:40:50;;;;;;;4.57;3.70;;;5.30;99.90;;;;;;2073612;28;20176;-68
2021/05/31 00:41:52;;;;;;;5.40;3.53;;;5.30;99.90;;;;;;2073210;28;20184;-68
2021/05/31 00:42:54;;;;;;;5.50;3.47;;;5.20;99.90;;;;;;2073776;28;20189;-68
2021/05/31 00:43:55;;;;;;;5.57;3.88;;;5.30;99.90;;;;;;2073723;28;20196;-68
2021/05/31 00:44:56;;;;;;;4.97;4.00;;;5.20;99.90;;;;;;2064810;28;20198;-67
2021/05/31 00:45:57;;;;;;;5.70;4.20;;;5.20;99.90;;;;;;2065022;28;20185;-68
2021/05/31 00:46:59;;;;;;;6.30;3.60;;;5.20;99.90;;;;;;2073722;28;20261;-68
2021/05/31 00:47:59;;;;;;;4.17;3.63;;;5.10;99.90;;;;;;2073428;28;20273;-67
2021/05/31 00:49:00;;;;;;;4.93;3.80;;;5.10;99.90;;;;;;2065131;28;20662;-67
2021/05/31 00:50:01;;;;;;;3.73;3.40;;;5.10;99.90;;;;;;2064973;28;20239;-68
2021/05/31 00:51:06;;;;;;;4.63;3.50;;;5.10;99.90;;;;;;2073925;28;20214;-68
2021/05/31 00:52:08;;;;;;;6.10;3.53;;;5.10;99.90;;;;;;2073624;28;20219;-68
2021/05/31 00:53:10;;;;;;;4.35;3.50;;;5.10;99.90;;;;;;2064995;28;20619;-68
2021/05/31 00:54:10;;;;;;;6.85;4.00;;;5.10;99.90;;;;;;2057179;28;20187;-69
2021/05/31 00:55:13;;;;;;;6.63;3.83;;;5.10;99.90;;;;;;2057073;28;20189;-69
2021/05/31 00:56:14;;;;;;;4.78;3.78;;;5.10;99.90;;;;;;2065126;28;20190;-68
2021/05/31 00:57:16;;;;;;;4.82;3.60;;;5.10;99.90;;;;;;2065027;28;20183;-68
2021/05/31 00:58:17;;;;;;;6.32;4.05;;;5.10;99.90;;;;;;2056654;28;20219;-68
2021/05/31 00:59:17;;;;;;;6.90;3.90;;;5.10;99.90;;;;;;2065105;28;20815;-68
2021/05/31 01:00:19;;;;;;;5.20;4.20;;;5.10;99.90;;;;;;2073442;28;20263;-68
2021/05/31 01:01:21;;;;;;;6.60;4.10;;;5.00;99.90;;;;;;2064706;28;20246;-67
2021/05/31 01:02:23;;;;;;;6.25;4.22;;;5.00;99.90;;;;;;2065266;28;20243;-68
2021/05/31 01:03:24;;;;;;;5.35;3.85;;;5.00;99.90;;;;;;2073543;28;20228;-69
2021/05/31 01:04:25;;;;;;;6.15;4.00;;;5.00;99.90;;;;;;2073535;28;20212;-69
2021/05/31 01:05:26;;;;;;;4.20;3.70;;;5.00;99.90;;;;;;2073920;28;20187;-69
2021/05/31 01:06:34;;;;;;;5.53;4.20;;;5.00;99.90;;;;;;2073615;28;20194;-68
2021/05/31 01:07:44;;;;;;;5.75;3.72;;;5.00;99.90;;;;;;2073708;28;20175;-69
2021/05/31 01:08:58;;;;;;;4.20;3.80;;;5.00;99.90;;;;;;2073547;28;20202;-69
2021/05/31 01:10:34;;;;;;;4.45;3.50;;;4.90;99.90;;;;;;2064926;28;20294;-69
2021/05/31 01:12:07;;;;;;;5.07;3.60;;;4.90;99.90;;;;;;2029075;29;20198;-68
2021/05/31 01:13:51;;;;;;;5.05;3.80;;;4.90;99.90;;;;;;2040503;29;20723;-68
2021/05/31 01:15:09;;;;;;;5.28;3.90;;;4.90;99.90;;;;;;2062095;28;20896;-68
2021/05/31 01:16:27;;;;;;;4.78;3.40;;;4.90;99.90;;;;;;2064915;28;20258;-69
2021/05/31 01:18:00;;;;;;;6.20;3.50;;;4.80;99.90;;;;;;2059182;28;20238;-69
2021/05/31 01:19:12;;;;;;;5.30;3.50;;;4.80;99.90;;;;;;2069494;28;20544;-69
2021/05/31 01:20:35;;;;;;;5.88;3.70;;;4.80;99.90;;;;;;2064823;28;20271;-69
2021/05/31 01:22:01;;;;;;;4.75;3.58;;;4.70;99.90;;;;;;2059456;28;20159;-68
2021/05/31 01:23:08;;;;;;;4.25;3.38;;;4.80;99.90;;;;;;2060108;28;20570;-69
2021/05/31 01:24:27;;;;;;;7.68;3.55;;;4.80;99.90;;;;;;2065816;28;20168;-69
2021/05/31 01:25:37;;;;;;;5.38;3.92;;;4.70;99.90;;;;;;2064565;28;20174;-69
2021/05/31 01:26:54;;;;;;;4.82;3.50;;;4.70;99.90;;;;;;2058324;28;20180;-69
2021/05/31 01:28:12;;;;;;;5.07;3.53;;;4.70;99.90;;;;;;2058740;28;20190;-69
2021/05/31 01:29:13;;;;;;;4.95;3.22;;;4.70;99.90;;;;;;2066989;28;20218;-69
2021/05/31 01:30:16;;;;;;;4.63;3.40;;;4.70;99.90;;;;;;2064547;28;20203;-68
2021/05/31 01:31:24;;;;;;;4.63;3.55;;;4.60;99.90;;;;;;2064746;28;20272;-69
2021/05/31 01:32:35;;;;;;;5.78;3.60;;;4.60;99.90;;;;;;2064845;28;20171;-68
2021/05/31 01:33:36;;;;;;;5.13;3.50;;;4.60;99.90;;;;;;2057987;28;20514;-69
2021/05/31 01:34:40;;;;;;;4.32;3.13;;;4.60;99.90;;;;;;2064639;28;20700;-68
2021/05/31 01:35:42;;;;;;;6.35;3.47;;;4.60;99.90;;;;;;2065009;28;20167;-67
2021/05/31 01:36:53;;;;;;;4.75;3.50;;;4.60;99.90;;;;;;2072885;28;20202;-69
2021/05/31 01:37:56;;;;;;;3.90;3.35;;;4.60;99.90;;;;;;2056637;28;20175;-69
2021/05/31 01:38:58;;;;;;;5.05;4.03;;;4.60;99.90;;;;;;2049135;28;20179;-69
2021/05/31 01:40:05;;;;;;;6.68;3.70;;;4.60;99.90;;;;;;2056447;28;20193;-69
2021/05/31 01:41:09;;;;;;;5.07;3.40;;;4.50;99.90;;;;;;2064978;28;20171;-69
2021/05/31 01:42:10;;;;;;;4.72;3.47;;;4.50;99.90;;;;;;2056496;28;20570;-69
2021/05/31 01:43:12;;;;;;;4.65;3.15;;;4.50;99.90;;;;;;2056548;28;20193;-68
2021/05/31 01:44:14;;;;;;;6.22;3.25;;;4.50;99.90;;;;;;2056350;28;20191;-68
2021/05/31 01:45:15;;;;;;;5.82;3.50;;;4.50;99.90;;;;;;2048544;28;20273;-68
2021/05/31 01:46:19;;;;;;;7.60;3.90;;;4.50;99.90;;;;;;2056312;28;20567;-68
2021/05/31 01:47:20;;;;;;;6.68;4.03;;;4.50;99.90;;;;;;2056349;28;20211;-69
2021/05/31 01:48:21;;;;;;;5.53;4.28;;;4.50;99.90;;;;;;2048380;28;20259;-69
2021/05/31 01:49:22;;;;;;;5.87;4.27;;;4.50;99.90;;;;;;2056442;28;20675;-68
2021/05/31 01:50:23;;;;;;;6.18;4.20;;;4.40;99.90;;;;;;2056111;28;20211;-68
2021/05/31 01:51:24;;;;;;;5.60;4.07;;;4.40;99.90;;;;;;2048082;28;20184;-68
2021/05/31 01:52:26;;;;;;;7.63;4.53;;;4.20;99.90;;;;;;2048104;28;20184;-68
2021/05/31 01:53:28;;;;;;;8.75;4.15;;;4.20;99.90;;;;;;2048481;28;20176;-69
2021/05/31 01:54:29;;;;;;;6.00;4.35;;;4.20;99.90;;;;;;2056153;28;20262;-68
2021/05/31 01:55:32;;;;;;;7.28;4.57;;;4.10;99.90;;;;;;2056286;28;20657;-69
2021/05/31 01:56:35;;;;;;;7.28;4.15;;;4.10;99.90;;;;;;2056491;28;20230;-68
2021/05/31 01:57:37;;;;;;;7.93;4.80;;;4.10;99.90;;;;;;2056170;28;20181;-69
2021/05/31 01:58:39;;;;;;;4.97;4.20;;;4.00;99.90;;;;;;2048197;28;20195;-69
2021/05/31 01:59:40;;;;;;;6.78;4.30;;;4.00;99.90;;;;;;2056476;28;20176;-69
2021/05/31 02:00:41;;;;;;;5.47;4.20;;;4.00;99.90;;;;;;2056215;28;20549;-68
2021/05/31 02:01:42;;;;;;;7.43;3.73;;;4.00;99.90;;;;;;2048116;29;20679;-68
2021/05/31 02:02:43;;;;;;;7.75;4.10;;;4.00;99.90;;;;;;2048145;28;20183;-69
2021/05/31 02:03:44;;;;;;;5.83;3.90;;;4.00;99.90;;;;;;2048178;29;20243;-68
2021/05/31 02:04:45;;;;;;;4.80;3.63;;;4.00;99.90;;;;;;2056389;28;20252;-69
2021/05/31 02:05:46;;;;;;;5.70;4.30;;;4.00;99.90;;;;;;2065021;28;20174;-70
2021/05/31 02:06:49;;;;;;;5.63;3.93;;;4.00;99.90;;;;;;2064976;28;20189;-70
2021/05/31 02:07:52;;;;;;;5.00;3.90;;;4.00;99.90;;;;;;2064980;28;20183;-68
2021/05/31 02:08:53;;;;;;;5.53;4.20;;;4.00;99.90;;;;;;2064890;28;20631;-69
2021/05/31 02:09:54;;;;;;;5.95;4.00;;;4.00;99.90;;;;;;2056332;28;20203;-68
2021/05/31 02:11:02;;;;;;;7.70;4.03;;;4.10;99.90;;;;;;2048348;28;20714;-68
2021/05/31 02:12:10;;;;;;;5.68;3.88;;;4.00;99.90;;;;;;2057407;28;20191;-69
2021/05/31 02:13:12;;;;;;;5.63;3.67;;;4.00;99.90;;;;;;2056243;28;20177;-67
2021/05/31 02:14:33;;;;;;;5.30;3.90;;;4.00;99.90;;;;;;2056432;28;20186;-68
2021/05/31 02:15:41;;;;;;;5.05;4.13;;;4.10;99.90;;;;;;2056153;28;20190;-68
2021/05/31 02:16:52;;;;;;;6.50;3.90;;;4.10;99.90;;;;;;2057341;28;20172;-68
2021/05/31 02:18:14;;;;;;;6.07;3.92;;;4.10;99.90;;;;;;2056096;28;20171;-68
2021/05/31 02:19:19;;;;;;;5.53;3.75;;;4.20;99.90;;;;;;2050990;28;20549;-69
2021/05/31 02:20:20;;;;;;;6.80;4.28;;;4.20;99.90;;;;;;2056587;28;20579;-69
2021/05/31 02:21:22;;;;;;;5.95;4.03;;;4.20;99.90;;;;;;2064005;28;20178;-68
2021/05/31 02:22:23;;;;;;;6.22;4.10;;;4.20;99.90;;;;;;2064679;28;20396;-69
2021/05/31 02:23:25;;;;;;;6.70;4.28;;;4.20;99.90;;;;;;2056108;28;20190;-68
2021/05/31 02:24:26;;;;;;;6.95;4.97;;;4.20;99.90;;;;;;2048150;28;20195;-69
2021/05/31 02:25:28;;;;;;;7.90;3.90;;;4.20;99.90;;;;;;2056241;28;20194;-68
2021/05/31 02:26:28;;;;;;;5.25;3.95;;;4.20;99.90;;;;;;2048070;28;20218;-68
2021/05/31 02:27:31;;;;;;;6.23;3.77;;;4.20;99.90;;;;;;2040483;29;20196;-68
2021/05/31 02:28:32;;;;;;;5.15;4.32;;;4.20;99.90;;;;;;2056348;28;20237;-69
2021/05/31 02:29:33;;;;;;;4.32;3.40;;;4.20;99.90;;;;;;2056095;28;20869;-68
2021/05/31 02:30:34;;;;;;;6.60;4.45;;;4.10;99.90;;;;;;2048011;28;20208;-69
2021/05/31 02:31:35;;;;;;;5.23;4.13;;;4.10;99.90;;;;;;2048002;28;20183;-68
2021/05/31 02:32:35;;;;;;;4.60;3.80;;;4.10;99.90;;;;;;2056119;28;20175;-68
2021/05/31 02:33:38;;;;;;;8.20;3.57;;;4.10;99.90;;;;;;2064232;28;20184;-68
2021/05/31 02:34:39;;;;;;;5.70;3.90;;;4.10;99.90;;;;;;2056197;28;20187;-69
2021/05/31 02:35:40;;;;;;;6.10;3.93;;;4.10;99.90;;;;;;2056050;28;20175;-68
2021/05/31 02:38:43;;;;;;;6.47;4.05;;;4.00;99.90;;;;;;2047120;28;20227;-68
2021/05/31 02:39:54;;;;;;;6.90;4.45;;;4.00;99.90;;;;;;2056614;28;20171;-69
2021/05/31 02:40:55;;;;;;;6.78;4.63;;;3.90;99.90;;;;;;2064350;28;20178;-69
2021/05/31 02:41:56;;;;;;;5.70;4.77;;;3.90;99.90;;;;;;2064589;28;20185;-68
2021/05/31 02:43:08;;;;;;;7.23;4.60;;;3.90;99.90;;;;;;2064534;28;20201;-67
2021/05/31 02:44:09;;;;;;;6.47;4.22;;;3.80;99.90;;;;;;2064781;28;20167;-68
2021/05/31 02:45:11;;;;;;;5.90;4.33;;;3.80;99.90;;;;;;2064561;28;20190;-68
2021/05/31 02:46:11;;;;;;;7.13;4.50;;;3.80;99.90;;;;;;2055840;28;20187;-68
2021/05/31 02:47:12;;;;;;;5.67;4.20;;;3.80;99.90;;;;;;2053830;28;21177;-68
2021/05/31 02:48:13;;;;;;;7.80;4.40;;;3.90;99.90;;;;;;2064324;28;20250;-68
2021/05/31 02:49:25;;;;;;;7.32;4.60;;;3.90;99.90;;;;;;2066498;28;20209;-69
2021/05/31 02:50:28;;;;;;;5.60;3.95;;;3.80;99.90;;;;;;2064287;28;20226;-68
2021/05/31 02:51:28;;;;;;;5.25;3.70;;;3.80;99.90;;;;;;2064030;28;20219;-68
2021/05/31 02:52:29;;;;;;;5.93;3.97;;;3.80;99.90;;;;;;2064539;28;20193;-68
2021/05/31 02:53:31;;;;;;;6.37;4.07;;;3.80;99.90;;;;;;2064518;28;20191;-69
2021/05/31 02:54:32;;;;;;;5.32;3.90;;;3.80;99.90;;;;;;2056193;28;20685;-68
2021/05/31 02:55:36;;;;;;;4.70;3.47;;;3.80;99.90;;;;;;2056120;28;20199;-69
2021/05/31 02:56:36;;;;;;;5.65;3.90;;;3.70;99.90;;;;;;2056042;28;20183;-69
2021/05/31 02:57:38;;;;;;;4.70;3.80;;;3.70;99.90;;;;;;2056270;28;20554;-68
2021/05/31 02:58:40;;;;;;;6.60;4.03;;;3.70;99.90;;;;;;2064571;28;20598;-68
2021/05/31 02:59:40;;;;;;;5.38;3.55;;;3.70;99.90;;;;;;2064503;28;20186;-68
2021/05/31 03:00:41;;;;;;;5.47;3.80;;;3.70;99.90;;;;;;2064695;28;20183;-68
2021/05/31 03:01:42;;;;;;;7.37;3.60;;;3.70;99.90;;;;;;2064406;28;20174;-68
2021/05/31 03:02:43;;;;;;;4.90;3.43;;;3.70;99.90;;;;;;2064746;28;20743;-68
2021/05/31 03:03:44;;;;;;;5.03;3.78;;;3.70;99.90;;;;;;2057550;28;20180;-68
2021/05/31 03:04:45;;;;;;;5.40;3.90;;;3.70;99.90;;;;;;2057680;28;20547;-68
2021/05/31 03:05:46;;;;;;;7.73;4.30;;;3.60;99.90;;;;;;2066280;28;20183;-68
2021/05/31 03:06:46;;;;;;;5.87;3.83;;;3.70;99.90;;;;;;2066313;28;20170;-68
2021/05/31 03:07:48;;;;;;;7.37;4.17;;;3.60;99.90;;;;;;2057451;28;20187;-68
2021/05/31 03:08:48;;;;;;;7.60;4.47;;;3.60;99.90;;;;;;2057785;28;20254;-68
2021/05/31 03:09:49;;;;;;;6.70;4.07;;;3.60;99.90;;;;;;2066159;28;20190;-68
2021/05/31 03:10:50;;;;;;;4.87;3.93;;;3.60;99.90;;;;;;2066361;28;20174;-68
2021/05/31 03:11:50;;;;;;;7.50;4.23;;;3.50;99.90;;;;;;2066082;28;20182;-69
2021/05/31 03:12:51;;;;;;;7.80;3.90;;;3.50;99.90;;;;;;2066264;28;20221;-68
2021/05/31 03:13:52;;;;;;;5.23;4.00;;;3.50;99.90;;;;;;2066073;28;20178;-68
2021/05/31 03:14:53;;;;;;;4.87;3.60;;;3.50;99.90;;;;;;2066094;28;20638;-69
2021/05/31 03:15:54;;;;;;;6.27;4.33;;;3.50;99.90;;;;;;2066222;28;20186;-69
2021/05/31 03:16:54;;;;;;;7.65;4.22;;;3.50;99.90;;;;;;2066109;28;20182;-68
2021/05/31 03:17:55;;;;;;;6.00;4.23;;;3.40;99.90;;;;;;2057457;28;20172;-68
2021/05/31 03:18:56;;;;;;;7.27;4.00;;;3.40;99.90;;;;;;2057230;28;20653;-68
2021/05/31 03:19:57;;;;;;;5.10;3.87;;;3.40;99.90;;;;;;2049530;29;20180;-68
2021/05/31 03:20:58;;;;;;;4.63;3.73;;;3.40;99.90;;;;;;2057367;28;20262;-68
2021/05/31 03:21:58;;;;;;;4.97;3.50;;;3.40;99.90;;;;;;2057422;28;20189;-68
2021/05/31 03:23:01;;;;;;;5.37;3.70;;;3.40;99.90;;;;;;2057349;28;20241;-68
2021/05/31 03:24:02;;;;;;;5.15;4.20;;;3.40;99.90;;;;;;2065933;28;20684;-68
2021/05/31 03:25:05;;;;;;;5.38;3.67;;;3.40;99.90;;;;;;2065911;28;20228;-68
2021/05/31 03:26:06;;;;;;;5.25;3.90;;;3.40;99.90;;;;;;2066055;28;20217;-68
2021/05/31 03:27:07;;;;;;;5.53;3.80;;;3.40;99.90;;;;;;2065886;28;20329;-68
2021/05/31 03:28:08;;;;;;;8.93;3.73;;;3.40;99.90;;;;;;2065923;28;20218;-69
2021/05/31 03:29:08;;;;;;;6.03;3.67;;;3.40;99.90;;;;;;2065801;28;20192;-68
2021/05/31 03:30:12;;;;;;;5.60;3.70;;;3.40;99.90;;;;;;2065806;28;20262;-69
2021/05/31 03:31:13;;;;;;;6.40;3.72;;;3.40;99.90;;;;;;2056940;28;20269;-68
2021/05/31 03:32:13;;;;;;;5.07;3.73;;;3.40;99.90;;;;;;2057227;28;20552;-68
2021/05/31 03:33:14;;;;;;;5.83;3.50;;;3.40;99.90;;;;;;2067566;28;20182;-68
2021/05/31 03:34:15;;;;;;;8.37;3.73;;;3.40;99.90;;;;;;2065266;28;20212;-68
2021/05/31 03:35:16;;;;;;;6.93;3.90;;;3.40;99.90;;;;;;2065115;28;20264;-68
2021/05/31 03:36:17;;;;;;;6.05;3.80;;;3.40;99.90;;;;;;2074059;28;20641;-68
2021/05/31 03:37:17;;;;;;;6.73;3.93;;;3.40;99.90;;;;;;2073991;28;20272;-68
2021/05/31 03:38:18;;;;;;;5.53;4.00;;;3.40;99.90;;;;;;2074077;28;20737;-69
2021/05/31 03:39:19;;;;;;;5.07;3.47;;;3.40;99.90;;;;;;2065259;28;20746;-68
2021/05/31 03:40:21;;;;;;;7.27;4.10;;;3.40;99.90;;;;;;2057069;28;20363;-68
2021/05/31 03:41:22;;;;;;;4.82;3.45;;;3.40;99.90;;;;;;2065340;28;20189;-69
2021/05/31 03:42:23;;;;;;;7.13;3.93;;;3.40;99.90;;;;;;2065356;28;20217;-68
2021/05/31 03:43:23;;;;;;;5.97;3.30;;;3.40;99.90;;;;;;2057098;28;20182;-69
2021/05/31 03:44:24;;;;;;;6.47;3.67;;;3.40;99.90;;;;;;2065331;28;20653;-68
2021/05/31 03:45:25;;;;;;;5.87;3.93;;;3.50;99.90;;;;;;2065022;28;20221;-68
2021/05/31 03:46:26;;;;;;;6.20;3.37;;;3.50;99.90;;;;;;2065313;28;20238;-69
2021/05/31 03:47:26;;;;;;;5.53;3.77;;;3.40;99.90;;;;;;2065077;28;20178;-69
2021/05/31 03:48:27;;;;;;;4.87;3.73;;;3.40;99.90;;;;;;2065191;28;20266;-68
2021/05/31 03:49:28;;;;;;;5.93;3.77;;;3.40;99.90;;;;;;2073845;28;20244;-68
2021/05/31 03:50:30;;;;;;;5.03;3.77;;;3.50;99.90;;;;;;2073898;28;20226;-69
2021/05/31 03:51:31;;;;;;;4.65;3.60;;;3.40;99.90;;;;;;2073509;28;20238;-69
2021/05/31 03:52:32;;;;;;;5.83;4.00;;;3.40;99.90;;;;;;2073855;28;20182;-68
2021/05/31 03:53:34;;;;;;;5.30;3.92;;;3.50;99.90;;;;;;2073805;28;20190;-68
2021/05/31 03:54:35;;;;;;;7.97;3.83;;;3.40;99.90;;;;;;2065039;28;20183;-68
2021/05/31 03:55:36;;;;;;;4.10;3.33;;;3.40;99.90;;;;;;2065124;28;20194;-68
2021/05/31 03:56:37;;;;;;;5.03;3.63;;;3.40;99.90;;;;;;2073600;28;20189;-69
2021/05/31 03:57:38;;;;;;;4.00;3.50;;;3.40;99.90;;;;;;2074116;28;20188;-68
2021/05/31 03:58:42;;;;;;;5.30;3.83;;;3.40;99.90;;;;;;2073608;28;20194;-68
2021/05/31 03:59:42;;;;;;;5.05;3.65;;;3.40;99.90;;;;;;2073716;28;20185;-68
2021/05/31 04:00:43;;;;;;;5.07;3.93;;;3.50;99.90;;;;;;2073688;28;20222;-68
2021/05/31 04:01:47;;;;;;;6.13;3.80;;;3.50;99.90;;;;;;2073446;28;20520;-68
2021/05/31 04:02:48;;;;;;;5.75;3.80;;;3.40;99.90;;;;;;2073669;28;20177;-68
2021/05/31 04:03:49;;;;;;;4.93;3.80;;;3.50;99.90;;;;;;2065208;28;20201;-69
2021/05/31 04:04:52;;;;;;;4.17;3.67;;;3.50;99.90;;;;;;2064961;28;20221;-68
2021/05/31 04:12:16;;;;;;;7.45;4.03;;;3.50;99.90;;;;;;2074244;28;20174;-69
2021/05/31 04:13:17;;;;;;;4.90;4.00;;;3.50;99.90;;;;;;2074128;28;20637;-69
2021/05/31 04:14:20;;;;;;;4.47;3.43;;;3.50;99.90;;;;;;2073966;28;20178;-69
2021/05/31 04:15:21;;;;;;;6.88;3.90;;;3.60;99.90;;;;;;2073827;28;20661;-68
2021/05/31 04:16:22;;;;;;;4.47;3.50;;;3.50;99.90;;;;;;2065244;28;20178;-69
2021/05/31 04:17:23;;;;;;;4.70;3.40;;;3.60;99.90;;;;;;2065206;28;20265;-69
2021/05/31 04:18:23;;;;;;;5.00;3.73;;;3.60;99.90;;;;;;2073709;28;20292;-68
2021/05/31 04:19:25;;;;;;;6.37;3.80;;;3.60;99.90;;;;;;2073741;28;20225;-68
2021/05/31 04:20:26;;;;;;;6.03;3.75;;;3.60;99.90;;;;;;2073741;28;20684;-69
2021/05/31 04:21:27;;;;;;;4.37;3.70;;;3.60;99.90;;;;;;2073565;28;20185;-69
2021/05/31 04:22:28;;;;;;;7.60;3.90;;;3.60;99.90;;;;;;2073781;28;20708;-68
2021/05/31 04:23:28;;;;;;;4.43;3.40;;;3.60;99.90;;;;;;2073669;28;20185;-68
2021/05/31 04:24:29;;;;;;;4.90;3.43;;;3.60;99.90;;;;;;2073994;28;20178;-68
2021/05/31 04:25:31;;;;;;;5.23;3.40;;;3.60;99.90;;;;;;2073750;28;20606;-68
2021/05/31 04:26:33;;;;;;;3.78;3.15;;;3.60;99.90;;;;;;2065151;28;20175;-68
2021/05/31 04:27:33;;;;;;;5.28;3.67;;;3.60;99.90;;;;;;2065088;28;20183;-69
2021/05/31 04:28:34;;;;;;;4.10;3.10;;;3.60;99.90;;;;;;2064952;28;20576;-68
2021/05/31 04:29:35;;;;;;;4.97;2.90;;;3.60;99.90;;;;;;2064939;28;20651;-71
2021/05/31 04:30:35;;;;;;;5.20;3.37;;;3.70;99.90;;;;;;2065073;28;20194;-68
2021/05/31 04:31:37;;;;;;;4.33;3.07;;;3.70;99.90;;;;;;2064701;28;20183;-68
2021/05/31 04:32:38;;;;;;;4.07;2.97;;;3.70;99.90;;;;;;2065097;28;20205;-68
2021/05/31 04:33:38;;;;;;;4.97;3.00;;;3.70;99.90;;;;;;2065100;28;20189;-69
2021/05/31 04:34:39;;;;;;;4.73;2.90;;;3.80;99.90;;;;;;2073658;28;20183;-70
2021/05/31 04:35:40;;;;;;;5.35;3.28;;;3.80;99.90;;;;;;2073727;28;20189;-69
2021/05/31 04:36:42;;;;;;;5.50;3.23;;;3.80;99.90;;;;;;2073867;28;20208;-69
2021/05/31 04:37:43;;;;;;;6.25;3.25;;;3.90;99.90;;;;;;2073545;28;20213;-70
2021/05/31 04:38:44;;;;;;;5.67;3.20;;;3.90;99.90;;;;;;2073879;28;20193;-69
2021/05/31 04:39:45;;;;;;;4.53;3.08;;;3.90;99.90;;;;;;2073418;28;20562;-69
2021/05/31 04:40:46;;;;;;;3.60;3.07;;;3.90;99.90;;;;;;2073765;28;20188;-69
2021/05/31 04:41:46;;;;;;;6.87;3.57;;;3.90;99.90;;;;;;2073557;28;20618;-69
2021/05/31 04:42:47;;;;;;;5.10;3.67;;;4.00;99.90;;;;;;2073798;28;20202;-69
2021/05/31 04:43:48;;;;;;;5.93;3.63;;;4.00;99.90;;;;;;2073772;28;20563;-69
2021/05/31 04:44:49;;;;;;;5.43;3.40;;;4.00;99.90;;;;;;2073721;28;20608;-69
2021/05/31 04:45:50;;;;;;;5.60;3.17;;;4.00;99.90;;;;;;2073715;28;20267;-69
2021/05/31 04:46:51;;;;;;;5.63;3.53;;;4.00;99.90;;;;;;2073801;28;20232;-69
2021/05/31 04:47:52;;;;;;;6.95;3.80;;;4.00;99.90;;;;;;2064674;28;20190;-69
2021/05/31 04:48:54;;;;;;;8.63;3.65;;;4.10;99.90;;;;;;2065587;28;20737;-69
2021/05/31 04:49:55;;;;;;;8.15;4.28;;;4.10;99.90;;;;;;2065376;28;20688;-69
2021/05/31 04:50:59;;;;;;;7.22;4.15;;;4.10;99.90;;;;;;2048823;29;20193;-69
2021/05/31 04:52:01;;;;;;;5.07;4.00;;;4.20;99.90;;;;;;2049623;28;20227;-69
2021/05/31 04:53:02;;;;;;;5.50;3.13;;;4.10;99.90;;;;;;2065644;28;20187;-69
2021/05/31 04:54:03;;;;;;;4.38;3.60;;;4.10;99.90;;;;;;2065363;28;20190;-69
2021/05/31 04:55:04;;;;;;;4.77;3.10;;;4.10;99.90;;;;;;2065540;28;20207;-69
2021/05/31 04:56:08;;;;;;;5.78;3.30;;;4.10;99.90;;;;;;2056713;28;20300;-69
2021/05/31 04:57:09;;;;;;;7.50;3.67;;;4.10;99.90;;;;;;2057425;28;20188;-69
2021/05/31 04:58:10;;;;;;;5.83;3.60;;;4.20;99.90;;;;;;2056636;28;20714;-70
2021/05/31 04:59:12;;;;;;;4.93;3.50;;;4.20;99.90;;;;;;2056890;28;20553;-69
2021/05/31 05:00:15;;;;;;;4.15;3.28;;;4.20;99.90;;;;;;2065291;28;20210;-70
2021/05/31 05:01:16;;;;;;;4.10;3.00;;;4.20;99.90;;;;;;2056505;28;20175;-69
2021/05/31 05:02:17;;;;;;;5.50;3.50;;;4.30;99.90;;;;;;2056936;28;20268;-70
2021/05/31 05:03:18;;;;;;;5.03;3.30;;;4.30;99.90;;;;;;2065525;28;20225;-70
2021/05/31 05:04:19;;;;;;;5.05;3.60;;;4.30;99.90;;;;;;2065476;28;20187;-68
2021/05/31 05:05:19;;;;;;;4.07;3.30;;;4.30;99.90;;;;;;2065447;28;20265;-69
2021/05/31 05:06:20;;;;;;;3.83;3.20;;;4.40;99.90;;;;;;2065306;28;20205;-69
2021/05/31 05:07:22;;;;;;;4.33;3.30;;;4.40;99.90;;;;;;2065238;28;20179;-69
2021/05/31 05:08:23;;;;;;;6.07;3.50;;;4.40;99.90;;;;;;2065423;28;20207;-69
2021/05/31 05:09:23;;;;;;;3.87;2.87;;;4.40;99.90;;;;;;2065308;28;20230;-69
2021/05/31 05:10:24;;;;;;;6.73;3.33;;;4.40;99.90;;;;;;2065245;28;20179;-69
2021/05/31 05:11:25;;;;;;;5.37;3.67;;;4.30;99.90;;;;;;2064838;28;20652;-69
2021/05/31 05:12:25;;;;;;;4.57;3.40;;;4.30;99.90;;;;;;2056406;28;20184;-69
2021/05/31 05:13:26;;;;;;;6.57;3.70;;;4.40;99.90;;;;;;2056403;28;20183;-69
2021/05/31 05:14:27;;;;;;;4.33;3.23;;;4.50;99.90;;;;;;2065158;28;20191;-69
2021/05/31 05:15:28;;;;;;;4.60;3.10;;;4.40;99.90;;;;;;2065154;28;20184;-69
2021/05/31 05:16:29;;;;;;;4.15;3.17;;;4.50;99.90;;;;;;2056565;28;20183;-69
2021/05/31 05:17:30;;;;;;;4.37;2.97;;;4.50;99.90;;;;;;2056270;28;20266;-69
2021/05/31 05:18:30;;;;;;;3.20;2.90;;;4.50;99.90;;;;;;2065003;28;20259;-69
2021/05/31 05:19:31;;;;;;;6.37;2.97;;;4.60;99.90;;;;;;2064875;28;20183;-69
2021/05/31 05:20:34;;;;;;;3.90;2.80;;;4.60;99.90;;;;;;2064350;28;20306;-69
2021/05/31 05:21:34;;;;;;;5.18;2.70;;;4.60;99.90;;;;;;2064232;28;20765;-69
2021/05/31 05:22:35;;;;;;;6.20;3.17;;;4.60;99.90;;;;;;2065015;28;20192;-69
2021/05/31 05:23:37;;;;;;;4.57;3.10;;;4.70;99.90;;;;;;2064945;28;20644;-69
2021/05/31 05:24:37;;;;;;;5.05;3.00;;;4.80;99.90;;;;;;2056485;28;20268;-69
2021/05/31 05:25:38;;;;;;;5.37;3.10;;;4.80;99.90;;;;;;2055646;28;20181;-69
2021/05/31 05:26:39;;;;;;;4.00;3.20;;;4.80;99.90;;;;;;2065028;28;20597;-69
2021/05/31 05:27:42;;;;;;;4.13;3.20;;;4.80;99.90;;;;;;2064808;28;20177;-69
2021/05/31 05:28:42;;;;;;;4.53;2.83;;;4.90;99.90;;;;;;2064961;28;20193;-69
2021/05/31 05:29:43;;;;;;;6.30;3.40;;;4.90;99.90;;;;;;2064898;28;20179;-69
2021/05/31 05:30:44;;;;;;;3.50;3.00;;;5.00;99.90;;;;;;2064973;28;20182;-69
2021/05/31 05:31:44;;;;;;;5.43;4.00;;;5.00;99.90;;;;;;2056035;28;20187;-69
2021/05/31 05:32:49;;;;;;;6.37;3.97;;;5.10;99.90;;;;;;2056451;28;20721;-69
2021/05/31 05:33:50;;;;;;;5.40;3.50;;;5.10;99.90;;;;;;2064728;28;20664;-69
2021/05/31 05:34:56;;;;;;;4.80;3.50;;;5.20;99.90;;;;;;2065011;28;20177;-69
2021/05/31 05:36:02;;;;;;;5.57;3.40;;;5.20;99.90;;;;;;2065708;28;20165;-69
2021/05/31 05:37:09;;;;;;;5.25;3.38;;;5.30;99.90;;;;;;2065779;28;20180;-69
2021/05/31 05:39:24;;;;;;;5.87;3.23;;;5.40;99.90;;;;;;2057069;28;20178;-69
2021/05/31 05:43:03;;;;;;;4.88;2.95;;;5.50;99.90;;;;;;2059518;28;20189;-69
2021/05/31 05:46:35;;;;;;;6.32;3.50;;;5.60;99.90;;;;;;2059223;28;20192;-69